createdAt,value
2023-02-07T00:02:31.964Z,-5.83
2023-02-07T00:06:08.472Z,-5.87
2023-02-07T00:09:37.495Z,-5.89
2023-02-07T00:13:06.415Z,-5.89
2023-02-07T00:16:32.239Z,-5.91
2023-02-07T00:20:00.100Z,-5.93
2023-02-07T00:23:27.367Z,-5.95
2023-02-07T00:26:57.110Z,-5.95
2023-02-07T00:30:24.447Z,-5.93
2023-02-07T00:33:52.990Z,-5.94
2023-02-07T00:37:20.206Z,-5.94
2023-02-07T00:40:47.469Z,-5.93
2023-02-07T00:44:25.158Z,-5.91
2023-02-07T00:47:52.680Z,-5.91
2023-02-07T00:51:21.581Z,-5.92
2023-02-07T00:54:49.047Z,-5.96
2023-02-07T00:58:16.391Z,-5.98
2023-02-07T01:01:43.675Z,-6.01
2023-02-07T01:05:13.604Z,-6.05
2023-02-07T01:08:40.846Z,-6.10
2023-02-07T01:12:08.955Z,-6.15
2023-02-07T01:15:41.476Z,-6.20
2023-02-07T01:19:11.410Z,-6.22
2023-02-07T01:22:42.558Z,-6.24
2023-02-07T01:26:10.311Z,-6.24
2023-02-07T01:29:37.473Z,-6.25
2023-02-07T01:33:05.431Z,-6.25
2023-02-07T01:36:32.807Z,-6.25
2023-02-07T01:40:00.095Z,-6.25
2023-02-07T01:43:28.526Z,-6.26
2023-02-07T01:46:57.307Z,-6.25
2023-02-07T01:50:25.272Z,-6.24
2023-02-07T01:53:58.812Z,-6.23
2023-02-07T01:57:26.750Z,-6.23
2023-02-07T02:00:54.558Z,-6.22
2023-02-07T02:04:21.851Z,-6.22
2023-02-07T02:07:49.879Z,-6.23
2023-02-07T02:11:34.545Z,-6.23
2023-02-07T02:15:21.422Z,-6.24
2023-02-07T02:19:06.219Z,-6.26
2023-02-07T02:22:59.103Z,-6.30
2023-02-07T02:26:49.328Z,-6.33
2023-02-07T02:30:52.511Z,-6.37
2023-02-07T02:34:34.939Z,-6.43
2023-02-07T02:38:15.769Z,-6.44
2023-02-07T02:41:50.520Z,-6.45
2023-02-07T02:45:33.914Z,-6.46
2023-02-07T02:49:16.142Z,-6.47
2023-02-07T02:52:50.601Z,-6.47
2023-02-07T02:57:00.005Z,-6.46
2023-02-07T03:00:39.427Z,-6.46
2023-02-07T03:04:28.798Z,-6.49
2023-02-07T03:08:06.428Z,-6.53
2023-02-07T03:11:47.839Z,-6.56
2023-02-07T03:15:24.599Z,-6.56
2023-02-07T03:19:01.357Z,-6.56
2023-02-07T03:22:29.876Z,-6.51
2023-02-07T03:26:01.758Z,-6.45
2023-02-07T03:29:32.808Z,-6.35
2023-02-07T03:33:03.492Z,-6.26
2023-02-07T03:36:39.993Z,-6.20
2023-02-07T03:40:10.244Z,-6.17
2023-02-07T03:43:42.512Z,-6.17
2023-02-07T03:47:09.928Z,-6.20
2023-02-07T03:50:37.416Z,-6.23
2023-02-07T03:54:05.019Z,-6.27
2023-02-07T03:57:35.497Z,-6.30
2023-02-07T04:01:02.728Z,-6.33
2023-02-07T04:04:30.129Z,-6.36
2023-02-07T04:07:57.310Z,-6.38
2023-02-07T04:11:24.409Z,-6.40
2023-02-07T04:14:51.760Z,-6.42
2023-02-07T04:18:18.896Z,-6.46
2023-02-07T04:21:46.100Z,-6.47
2023-02-07T04:25:13.300Z,-6.47
2023-02-07T04:28:40.438Z,-6.47
2023-02-07T04:32:07.991Z,-6.47
2023-02-07T04:35:35.313Z,-6.46
2023-02-07T04:39:06.485Z,-6.45
2023-02-07T04:42:33.832Z,-6.39
2023-02-07T04:46:01.904Z,-6.31
2023-02-07T04:49:36.567Z,-6.20
2023-02-07T04:53:03.718Z,-6.09
2023-02-07T04:56:31.266Z,-5.97
2023-02-07T05:00:00.920Z,-5.86
2023-02-07T05:03:28.139Z,-5.75
2023-02-07T05:06:55.351Z,-5.64
2023-02-07T05:10:22.643Z,-5.57
2023-02-07T05:13:50.606Z,-5.49
2023-02-07T05:17:20.213Z,-5.43
2023-02-07T05:20:47.718Z,-5.37
2023-02-07T05:24:14.927Z,-5.32
2023-02-07T05:27:42.205Z,-5.25
2023-02-07T05:31:12.655Z,-5.17
2023-02-07T05:34:40.066Z,-5.09
2023-02-07T05:38:09.790Z,-5.01
2023-02-07T05:41:37.128Z,-4.94
2023-02-07T05:45:04.592Z,-4.88
2023-02-07T05:48:31.902Z,-4.81
2023-02-07T05:51:59.282Z,-4.73
2023-02-07T05:55:34.152Z,-4.64
2023-02-07T05:59:01.476Z,-4.53
2023-02-07T06:02:31.888Z,-4.43
2023-02-07T06:05:59.248Z,-4.34
2023-02-07T06:09:26.557Z,-4.25
2023-02-07T06:12:53.816Z,-4.16
2023-02-07T06:16:21.035Z,-4.07
2023-02-07T06:19:48.762Z,-3.99
2023-02-07T06:23:15.953Z,-3.91
2023-02-07T06:26:44.405Z,-3.83
2023-02-07T06:30:13.712Z,-3.73
2023-02-07T06:33:39.193Z,-3.65
2023-02-07T06:37:06.585Z,-3.58
2023-02-07T06:40:33.785Z,-3.51
2023-02-07T06:44:01.141Z,-3.45
2023-02-07T06:47:28.363Z,-3.40
2023-02-07T06:50:55.734Z,-3.35
2023-02-07T06:54:22.928Z,-3.29
2023-02-07T06:57:50.081Z,-3.22
2023-02-07T07:01:20.274Z,-3.15
2023-02-07T07:04:47.776Z,-3.07
2023-02-07T07:08:18.261Z,-2.99
2023-02-07T07:11:45.549Z,-2.90
2023-02-07T07:15:13.294Z,-2.81
2023-02-07T07:18:40.571Z,-2.72
2023-02-07T07:22:07.989Z,-2.64
2023-02-07T07:25:36.356Z,-2.56
2023-02-07T07:29:04.983Z,-2.50
2023-02-07T07:32:34.442Z,-2.46
2023-02-07T07:36:02.930Z,-2.41
2023-02-07T07:39:30.421Z,-2.36
2023-02-07T07:42:57.776Z,-2.30
2023-02-07T07:46:31.271Z,-2.25
2023-02-07T07:49:58.567Z,-2.19
2023-02-07T07:53:26.534Z,-2.12
2023-02-07T07:56:54.107Z,-2.06
2023-02-07T08:00:22.818Z,-1.99
2023-02-07T08:03:50.069Z,-1.91
2023-02-07T08:07:17.370Z,-1.84
2023-02-07T08:10:45.831Z,-1.79
2023-02-07T08:14:12.971Z,-1.73
2023-02-07T08:17:40.181Z,-1.68
2023-02-07T08:21:08.860Z,-1.63
2023-02-07T08:24:37.108Z,-1.56
2023-02-07T08:28:05.145Z,-1.51
2023-02-07T08:31:32.772Z,-1.46
2023-02-07T08:35:00.046Z,-1.42
2023-02-07T08:38:34.869Z,-1.38
2023-02-07T08:42:02.140Z,-1.32
2023-02-07T08:45:29.864Z,-1.26
2023-02-07T08:48:57.116Z,-1.20
2023-02-07T08:52:24.324Z,-1.15
2023-02-07T08:55:52.160Z,-1.11
2023-02-07T08:59:29.582Z,-1.07
2023-02-07T09:02:59.217Z,-1.03
2023-02-07T09:06:27.330Z,-0.98
2023-02-07T09:09:54.677Z,-0.91
2023-02-07T09:13:22.027Z,-0.85
2023-02-07T09:16:49.419Z,-0.80
2023-02-07T09:20:17.001Z,-0.74
2023-02-07T09:23:44.312Z,-0.69
2023-02-07T09:27:11.637Z,-0.63
2023-02-07T09:30:41.050Z,-0.57
2023-02-07T09:34:11.849Z,-0.50
2023-02-07T09:37:49.355Z,-0.44
2023-02-07T09:41:27.099Z,-0.38
2023-02-07T09:44:58.761Z,-0.33
2023-02-07T09:48:30.186Z,-0.27
2023-02-07T09:51:59.602Z,-0.19
2023-02-07T09:55:29.735Z,-0.13
2023-02-07T09:59:02.231Z,-0.07
2023-02-07T10:02:37.333Z,-0.04
2023-02-07T10:06:17.941Z,-0.03
2023-02-07T10:09:47.544Z,0.00
2023-02-07T10:13:38.775Z,0.04
2023-02-07T10:17:31.789Z,0.09
2023-02-07T10:21:04.664Z,0.16
2023-02-07T10:24:53.189Z,0.19
2023-02-07T10:28:40.438Z,0.26
2023-02-07T10:32:15.794Z,0.34
2023-02-07T10:35:43.712Z,0.41
2023-02-07T10:39:20.156Z,0.47
2023-02-07T10:42:51.607Z,0.53
2023-02-07T10:46:21.917Z,0.57
2023-02-07T10:49:52.633Z,0.65
2023-02-07T10:53:54.773Z,0.70
2023-02-07T10:57:23.758Z,0.79
2023-02-07T11:00:53.775Z,0.87
2023-02-07T11:04:35.108Z,0.91
2023-02-07T11:08:04.946Z,0.97
2023-02-07T11:11:39.519Z,1.00
2023-02-07T11:15:16.308Z,1.07
2023-02-07T11:18:46.181Z,1.11
2023-02-07T11:22:21.628Z,1.18
2023-02-07T11:25:50.095Z,1.25
2023-02-07T11:29:20.402Z,1.31
2023-02-07T11:32:55.544Z,1.33
2023-02-07T11:36:37.013Z,1.36
2023-02-07T11:40:21.431Z,1.38
2023-02-07T11:43:58.322Z,1.38
2023-02-07T11:47:29.350Z,1.34
2023-02-07T11:50:58.731Z,1.24
2023-02-07T11:54:34.957Z,1.19
2023-02-07T11:58:08.722Z,1.17
2023-02-07T12:01:37.849Z,1.16
2023-02-07T12:05:19.078Z,1.23
2023-02-07T12:08:47.281Z,1.30
2023-02-07T12:12:20.182Z,1.40
2023-02-07T12:15:52.517Z,1.51
2023-02-07T12:19:24.332Z,1.58
2023-02-07T12:23:07.923Z,1.65
2023-02-07T12:26:45.297Z,1.69
2023-02-07T12:30:19.026Z,1.72
2023-02-07T12:33:52.174Z,1.72
2023-02-07T12:37:26.111Z,1.69
2023-02-07T12:40:59.518Z,1.65
2023-02-07T12:44:32.861Z,1.61
2023-02-07T12:48:09.200Z,1.58
2023-02-07T12:51:47.925Z,1.56
2023-02-07T12:55:31.250Z,1.55
2023-02-07T12:59:11.366Z,1.46
2023-02-07T13:02:51.171Z,1.22
2023-02-07T13:06:29.162Z,1.07
2023-02-07T13:10:27.835Z,1.09
2023-02-07T13:14:05.447Z,1.08
2023-02-07T13:18:01.910Z,1.13
2023-02-07T13:21:42.147Z,1.14
2023-02-07T13:25:17.923Z,1.17
2023-02-07T13:28:50.461Z,1.21
2023-02-07T13:32:22.789Z,1.25
2023-02-07T13:35:50.843Z,1.29
2023-02-07T13:39:43.924Z,1.29
2023-02-07T13:43:16.496Z,1.27
2023-02-07T13:47:02.025Z,1.27
2023-02-07T13:50:41.273Z,1.29
2023-02-07T13:54:29.361Z,1.31
2023-02-07T13:58:14.397Z,1.33
2023-02-07T14:01:51.417Z,1.36
2023-02-07T14:05:25.453Z,1.39
2023-02-07T14:09:05.684Z,1.41
2023-02-07T14:12:36.782Z,1.44
2023-02-07T14:16:10.777Z,1.44
2023-02-07T14:19:54.824Z,1.43
2023-02-07T14:23:22.719Z,1.42
2023-02-07T14:27:25.939Z,1.41
2023-02-07T14:31:22.960Z,1.40
2023-02-07T14:35:08.306Z,1.39
2023-02-07T14:38:39.814Z,1.37
2023-02-07T14:42:19.159Z,1.33
2023-02-07T14:46:04.391Z,1.29
2023-02-07T14:49:36.443Z,1.26
2023-02-07T14:53:06.063Z,1.22
2023-02-07T14:56:47.051Z,1.17
2023-02-07T15:00:28.981Z,1.11
2023-02-07T15:04:03.261Z,1.05
2023-02-07T15:07:30.641Z,0.98
2023-02-07T15:11:18.086Z,0.90
2023-02-07T15:14:47.920Z,0.82
2023-02-07T15:18:18.701Z,0.73
2023-02-07T15:21:49.744Z,0.64
2023-02-07T15:25:17.964Z,0.59
2023-02-07T15:28:45.504Z,0.54
2023-02-07T15:32:23.875Z,0.49
2023-02-07T15:35:51.495Z,0.44
2023-02-07T15:39:21.230Z,0.38
2023-02-07T15:42:52.778Z,0.33
2023-02-07T15:46:21.176Z,0.28
2023-02-07T15:49:58.959Z,0.24
2023-02-07T15:53:30.203Z,0.21
2023-02-07T15:57:01.343Z,0.17
2023-02-07T16:00:30.618Z,0.13
2023-02-07T16:03:57.877Z,0.11
2023-02-07T16:07:26.136Z,0.06
2023-02-07T16:11:12.102Z,0.03
2023-02-07T16:14:43.797Z,0.01
2023-02-07T16:18:38.917Z,-0.02
2023-02-07T16:22:09.616Z,-0.03
2023-02-07T16:25:38.282Z,-0.06
2023-02-07T16:29:07.634Z,-0.06
2023-02-07T16:32:36.229Z,-0.06
2023-02-07T16:36:03.626Z,-0.07
2023-02-07T16:39:30.719Z,-0.10
2023-02-07T16:42:58.666Z,-0.11
2023-02-07T16:46:25.866Z,-0.13
2023-02-07T16:49:53.568Z,-0.16
2023-02-07T16:53:20.839Z,-0.16
2023-02-07T16:56:50.976Z,-0.19
2023-02-07T17:00:22.126Z,-0.21
2023-02-07T17:03:49.785Z,-0.22
2023-02-07T17:07:17.323Z,-0.23
2023-02-07T17:10:48.141Z,-0.23
2023-02-07T17:14:15.458Z,-0.24
2023-02-07T17:17:42.688Z,-0.24
2023-02-07T17:21:11.688Z,-0.25
2023-02-07T17:24:39.097Z,-0.26
2023-02-07T17:28:06.932Z,-0.26
2023-02-07T17:31:34.260Z,-0.25
2023-02-07T17:35:01.422Z,-0.23
2023-02-07T17:38:28.622Z,-0.22
2023-02-07T17:41:56.561Z,-0.20
2023-02-07T17:45:24.413Z,-0.20
2023-02-07T17:48:53.258Z,-0.21
2023-02-07T17:52:20.540Z,-0.21
2023-02-07T17:55:47.794Z,-0.22
2023-02-07T17:59:24.112Z,-0.25
2023-02-07T18:02:51.765Z,-0.31
2023-02-07T18:06:21.525Z,-0.37
2023-02-07T18:09:48.717Z,-0.40
2023-02-07T18:13:16.148Z,-0.39
2023-02-07T18:16:43.277Z,-0.39
2023-02-07T18:20:13.102Z,-0.38
2023-02-07T18:23:40.332Z,-0.37
2023-02-07T18:27:07.922Z,-0.35
2023-02-07T18:30:35.312Z,-0.34
2023-02-07T18:34:02.725Z,-0.33
2023-02-07T18:37:30.112Z,-0.33
2023-02-07T18:40:57.219Z,-0.34
2023-02-07T18:44:25.123Z,-0.36
2023-02-07T18:47:52.269Z,-0.38
2023-02-07T18:51:20.648Z,-0.43
2023-02-07T18:54:47.913Z,-0.49
2023-02-07T18:58:15.089Z,-0.53
2023-02-07T19:01:42.264Z,-0.55
2023-02-07T19:05:09.928Z,-0.59
2023-02-07T19:08:37.459Z,-0.63
2023-02-07T19:12:05.221Z,-0.64
2023-02-07T19:15:32.536Z,-0.63
2023-02-07T19:19:03.466Z,-0.61
2023-02-07T19:22:35.885Z,-0.58
2023-02-07T19:26:04.346Z,-0.56
2023-02-07T19:29:34.543Z,-0.55
2023-02-07T19:33:01.817Z,-0.57
2023-02-07T19:36:30.518Z,-0.56
2023-02-07T19:39:57.637Z,-0.58
2023-02-07T19:43:24.821Z,-0.57
2023-02-07T19:46:52.155Z,-0.57
2023-02-07T19:50:21.198Z,-0.56
2023-02-07T19:53:50.057Z,-0.53
2023-02-07T19:57:18.178Z,-0.51
2023-02-07T20:00:45.447Z,-0.49
2023-02-07T20:04:12.651Z,-0.46
2023-02-07T20:07:39.836Z,-0.43
2023-02-07T20:11:11.913Z,-0.42
2023-02-07T20:14:39.354Z,-0.42
2023-02-07T20:18:07.806Z,-0.44
2023-02-07T20:21:36.324Z,-0.45
2023-02-07T20:25:07.846Z,-0.45
2023-02-07T20:28:35.124Z,-0.44
2023-02-07T20:32:02.442Z,-0.43
2023-02-07T20:35:29.718Z,-0.41
2023-02-07T20:38:59.805Z,-0.42
2023-02-07T20:42:27.097Z,-0.43
2023-02-07T20:46:04.100Z,-0.45
2023-02-07T20:49:32.654Z,-0.45
2023-02-07T20:52:59.780Z,-0.46
2023-02-07T20:56:27.838Z,-0.49
2023-02-07T20:59:55.131Z,-0.55
2023-02-07T21:03:22.260Z,-0.58
2023-02-07T21:06:50.634Z,-0.59
2023-02-07T21:10:18.253Z,-0.59
2023-02-07T21:13:49.064Z,-0.64
2023-02-07T21:17:18.260Z,-0.67
2023-02-07T21:20:45.635Z,-0.70
2023-02-07T21:24:13.018Z,-0.71
2023-02-07T21:28:00.487Z,-0.70
2023-02-07T21:31:28.403Z,-0.70
2023-02-07T21:34:58.577Z,-0.71
2023-02-07T21:38:25.715Z,-0.73
2023-02-07T21:41:53.308Z,-0.75
2023-02-07T21:45:20.628Z,-0.78
2023-02-07T21:48:50.755Z,-0.79
2023-02-07T21:52:18.608Z,-0.80
2023-02-07T21:55:45.838Z,-0.80
2023-02-07T21:59:15.445Z,-0.82
2023-02-07T22:02:43.356Z,-0.85
2023-02-07T22:06:11.976Z,-0.86
2023-02-07T22:09:39.263Z,-0.86
2023-02-07T22:13:06.671Z,-0.88
2023-02-07T22:16:35.483Z,-0.87
2023-02-07T22:20:02.698Z,-0.88
2023-02-07T22:23:30.248Z,-0.88
2023-02-07T22:26:57.495Z,-0.90
2023-02-07T22:30:24.657Z,-0.92
2023-02-07T22:33:53.421Z,-0.94
2023-02-07T22:37:20.652Z,-0.94
2023-02-07T22:40:47.913Z,-0.94
2023-02-07T22:44:17.695Z,-0.95
2023-02-07T22:47:45.403Z,-0.96
2023-02-07T22:51:19.575Z,-0.98
2023-02-07T22:54:46.999Z,-1.02
2023-02-07T22:58:16.361Z,-1.03
2023-02-07T23:01:44.199Z,-1.03
2023-02-07T23:05:12.026Z,-1.02
2023-02-07T23:08:39.367Z,-1.02
2023-02-07T23:12:07.751Z,-1.03
2023-02-07T23:15:49.372Z,-1.04
2023-02-07T23:19:20.607Z,-1.08
2023-02-07T23:22:55.712Z,-1.11
2023-02-07T23:26:32.404Z,-1.13
2023-02-07T23:29:59.867Z,-1.14
2023-02-07T23:33:35.615Z,-1.18
2023-02-07T23:37:05.772Z,-1.21
2023-02-07T23:40:33.989Z,-1.24
2023-02-07T23:44:02.731Z,-1.27
2023-02-07T23:47:30.159Z,-1.32
2023-02-07T23:50:59.324Z,-1.36
2023-02-07T23:54:26.925Z,-1.39
2023-02-07T23:57:55.335Z,-1.39
